createdAt,value
2023-04-22T00:00:38.495Z,99963.16
2023-04-22T00:03:11.136Z,99960.72
2023-04-22T00:05:42.162Z,99950.19
2023-04-22T00:08:12.199Z,99950.38
2023-04-22T00:10:41.874Z,99947.13
2023-04-22T00:13:11.581Z,99956.91
2023-04-22T00:15:41.338Z,99952.66
2023-04-22T00:18:14.315Z,99949.31
2023-04-22T00:20:44.407Z,99938.00
2023-04-22T00:23:14.658Z,99945.09
2023-04-22T00:25:44.327Z,99947.81
2023-04-22T00:28:14.094Z,99942.63
2023-04-22T00:30:43.795Z,99937.47
2023-04-22T00:33:16.089Z,99940.25
2023-04-22T00:35:45.828Z,99940.31
2023-04-22T00:38:15.620Z,99928.16
2023-04-22T00:40:45.461Z,99938.75
2023-04-22T00:43:16.207Z,99933.63
2023-04-22T00:45:46.393Z,99935.34
2023-04-22T00:48:18.880Z,99929.38
2023-04-22T00:50:48.635Z,99927.59
2023-04-22T00:53:18.860Z,99931.06
2023-04-22T00:55:48.548Z,99939.88
2023-04-22T00:58:18.596Z,99939.06
2023-04-22T01:00:48.390Z,99940.84
2023-04-22T01:03:21.119Z,99941.69
2023-04-22T01:05:51.558Z,99942.63
2023-04-22T01:08:21.328Z,99939.13
2023-04-22T01:10:51.027Z,99935.66
2023-04-22T01:13:21.390Z,99942.69
2023-04-22T01:15:51.215Z,99936.66
2023-04-22T01:18:23.563Z,99939.31
2023-04-22T01:20:53.338Z,99937.59
2023-04-22T01:23:25.919Z,99937.63
2023-04-22T01:25:57.072Z,99942.03
2023-04-22T01:28:27.043Z,99941.25
2023-04-22T01:30:58.812Z,99943.88
2023-04-22T01:33:28.583Z,99943.00
2023-04-22T01:35:58.350Z,99943.00
2023-04-22T01:38:33.564Z,99945.72
2023-04-22T01:41:03.762Z,99942.16
2023-04-22T01:43:34.002Z,99946.50
2023-04-22T01:46:04.307Z,99947.41
2023-04-22T01:48:34.015Z,99945.63
2023-04-22T01:51:03.851Z,99944.78
2023-04-22T01:53:36.165Z,99939.59
2023-04-22T01:56:05.978Z,99939.59
2023-04-22T01:58:36.498Z,99936.13
2023-04-22T02:01:07.805Z,99938.75
2023-04-22T02:03:39.742Z,99943.16
2023-04-22T02:06:09.932Z,99943.09
2023-04-22T02:08:42.399Z,99950.19
2023-04-22T02:11:12.100Z,99944.97
2023-04-22T02:13:43.125Z,99949.38
2023-04-22T02:16:12.845Z,99944.19
2023-04-22T02:18:42.615Z,99943.34
2023-04-22T02:21:12.426Z,99946.88
2023-04-22T02:23:46.956Z,99950.50
2023-04-22T02:26:16.718Z,99947.88
2023-04-22T02:28:46.409Z,99940.03
2023-04-22T02:31:16.192Z,99947.03
2023-04-22T02:33:46.046Z,99944.41
2023-04-22T02:36:15.776Z,99939.16
2023-04-22T02:38:49.234Z,99937.47
2023-04-22T02:41:19.059Z,99933.09
2023-04-22T02:43:49.208Z,99935.72
2023-04-22T02:46:19.242Z,99934.88
2023-04-22T02:48:49.519Z,99934.00
2023-04-22T02:51:19.323Z,99936.63
2023-04-22T02:53:51.847Z,99934.00
2023-04-22T02:56:22.003Z,99932.25
2023-04-22T02:58:51.868Z,99935.72
2023-04-22T03:01:21.598Z,99922.59
2023-04-22T03:03:51.848Z,99916.47
2023-04-22T03:06:25.689Z,99926.91
2023-04-22T03:08:58.212Z,99928.66
2023-04-22T03:11:28.255Z,99921.66
2023-04-22T03:13:57.993Z,99922.50
2023-04-22T03:16:29.026Z,99916.38
2023-04-22T03:19:00.830Z,99910.19
2023-04-22T03:21:32.362Z,99911.91
2023-04-22T03:24:06.049Z,99909.28
2023-04-22T03:26:37.959Z,99909.22
2023-04-22T03:29:07.800Z,99905.66
2023-04-22T03:31:37.843Z,99909.13
2023-04-22T03:34:07.787Z,99901.25
2023-04-22T03:36:38.134Z,99911.69
2023-04-22T03:39:10.892Z,99918.72
2023-04-22T03:41:41.811Z,99908.22
2023-04-22T03:44:12.300Z,99907.38
2023-04-22T03:46:42.119Z,99905.59
2023-04-22T03:49:20.349Z,99899.41
2023-04-22T03:51:50.976Z,99899.50
2023-04-22T03:54:27.613Z,99900.34
2023-04-22T03:56:58.719Z,99902.97
2023-04-22T03:59:29.593Z,99902.13
2023-04-22T04:01:59.657Z,99899.50
2023-04-22T04:04:30.837Z,99901.19
2023-04-22T04:07:04.080Z,99897.72
2023-04-22T04:09:36.676Z,99896.88
2023-04-22T04:12:06.662Z,99898.56
2023-04-22T04:14:41.324Z,99902.03
2023-04-22T04:17:14.181Z,99895.91
2023-04-22T04:19:44.387Z,99900.22
2023-04-22T04:22:15.090Z,99900.16
2023-04-22T04:24:56.046Z,99898.38
2023-04-22T04:27:29.693Z,99900.09
2023-04-22T04:29:59.430Z,99894.75
2023-04-22T04:32:55.152Z,99879.00
2023-04-22T04:35:26.505Z,99881.53
2023-04-22T04:37:59.424Z,99879.75
2023-04-22T04:40:32.398Z,99882.38
2023-04-22T04:43:13.070Z,99887.47
2023-04-22T04:45:50.338Z,99892.72
2023-04-22T04:48:27.638Z,99889.06
2023-04-22T04:51:04.561Z,99893.31
2023-04-22T04:53:37.034Z,99884.31
2023-04-22T04:56:09.463Z,99898.22
2023-04-22T04:58:39.812Z,99912.91
2023-04-22T05:01:18.233Z,99907.47
2023-04-22T05:03:49.693Z,99911.72
2023-04-22T05:06:21.258Z,99911.63
2023-04-22T05:08:58.798Z,99909.84
2023-04-22T05:11:31.477Z,99906.28
2023-04-22T05:14:03.104Z,99906.22
2023-04-22T05:16:37.359Z,99910.47
2023-04-22T05:19:07.511Z,99903.25
2023-04-22T05:21:38.204Z,99896.03
2023-04-22T05:24:08.344Z,99898.88
2023-04-22T05:26:40.954Z,99903.44
2023-04-22T05:29:16.881Z,99902.94
2023-04-22T05:31:46.810Z,99894.34
2023-04-22T05:34:16.515Z,99882.75
2023-04-22T05:36:46.455Z,99871.72
2023-04-22T05:39:16.976Z,99860.41
2023-04-22T05:41:49.906Z,99850.75
2023-04-22T05:44:20.238Z,99839.94
2023-04-22T05:46:50.525Z,99833.09
2023-04-22T05:49:21.937Z,99822.78
2023-04-22T05:52:10.403Z,99811.56
2023-04-22T05:54:52.427Z,99806.59
2023-04-22T05:57:24.987Z,99807.53
2023-04-22T05:59:54.783Z,99791.38
2023-04-22T06:02:26.139Z,99799.63
2023-04-22T06:04:56.375Z,99797.25
2023-04-22T06:07:26.598Z,99797.91
2023-04-22T06:10:04.056Z,99782.50
2023-04-22T06:12:37.996Z,99782.06
2023-04-22T06:15:09.102Z,99780.69
2023-04-22T06:17:39.639Z,99778.34
2023-04-22T06:20:10.881Z,99775.00
2023-04-22T06:22:40.622Z,99770.38
2023-04-22T06:25:12.376Z,99770.78
2023-04-22T06:27:44.724Z,99771.84
2023-04-22T06:30:16.518Z,99771.56
2023-04-22T06:32:46.428Z,99776.31
2023-04-22T06:35:16.206Z,99769.72
2023-04-22T06:37:46.298Z,99769.31
2023-04-22T06:40:17.388Z,99771.38
2023-04-22T06:42:58.348Z,99764.78
2023-04-22T06:45:36.694Z,99757.47
2023-04-22T06:48:20.574Z,99766.41
2023-04-22T06:51:28.805Z,99764.34
2023-04-22T06:53:58.922Z,99766.72
2023-04-22T06:56:28.744Z,99759.88
2023-04-22T06:59:01.083Z,99756.84
2023-04-22T07:01:32.908Z,99755.81
2023-04-22T07:04:03.165Z,99759.09
2023-04-22T07:06:33.083Z,99753.22
2023-04-22T07:09:03.272Z,99754.00
2023-04-22T07:11:34.278Z,99757.78
2023-04-22T07:14:15.050Z,99751.13
2023-04-22T07:16:44.864Z,99756.44
2023-04-22T07:19:14.565Z,99755.84
2023-04-22T07:21:44.319Z,99756.94
2023-04-22T07:24:13.989Z,99745.28
2023-04-22T07:26:44.469Z,99743.13
2023-04-22T07:29:16.685Z,99740.69
2023-04-22T07:31:47.191Z,99744.09
2023-04-22T07:34:17.587Z,99749.16
2023-04-22T07:36:47.257Z,99737.06
2023-04-22T07:39:16.933Z,99736.94
2023-04-22T07:41:46.625Z,99728.91
2023-04-22T07:44:21.655Z,99729.19
2023-04-22T07:46:51.730Z,99730.00
2023-04-22T07:49:21.339Z,99729.09
2023-04-22T07:51:50.992Z,99716.34
2023-04-22T07:54:20.703Z,99721.28
2023-04-22T07:56:50.386Z,99721.25
2023-04-22T07:59:22.707Z,99719.69
2023-04-22T08:01:52.543Z,99722.03
2023-04-22T08:04:25.289Z,99729.28
2023-04-22T08:06:56.074Z,99714.84
2023-04-22T08:09:26.104Z,99714.97
2023-04-22T08:11:56.763Z,99709.31
2023-04-22T08:14:29.101Z,99706.66
2023-04-22T08:16:58.788Z,99702.09
2023-04-22T08:19:28.560Z,99702.47
2023-04-22T08:21:58.290Z,99698.94
2023-04-22T08:24:28.029Z,99700.63
2023-04-22T08:26:57.680Z,99696.41
2023-04-22T08:29:30.111Z,99700.22
2023-04-22T08:31:59.859Z,99704.69
2023-04-22T08:34:29.635Z,99698.50
2023-04-22T08:36:59.459Z,99696.75
2023-04-22T08:39:29.162Z,99681.00
2023-04-22T08:41:59.317Z,99691.75
2023-04-22T08:44:31.787Z,99693.81
2023-04-22T08:47:02.917Z,99688.91
2023-04-22T08:49:33.197Z,99676.22
2023-04-22T08:52:02.905Z,99671.31
2023-04-22T08:54:33.346Z,99670.53
2023-04-22T08:57:03.307Z,99667.97
2023-04-22T08:59:35.731Z,99669.50
2023-04-22T09:02:06.056Z,99663.47
2023-04-22T09:04:36.602Z,99670.63
2023-04-22T09:07:06.894Z,99660.06
2023-04-22T09:09:37.079Z,99658.00
2023-04-22T09:12:07.241Z,99661.72
2023-04-22T09:14:39.989Z,99651.94
2023-04-22T09:17:09.894Z,99655.94
2023-04-22T09:19:39.741Z,99651.38
2023-04-22T09:22:14.336Z,99643.13
2023-04-22T09:24:47.905Z,99646.44
2023-04-22T09:27:19.354Z,99644.34
2023-04-22T09:29:54.256Z,99645.78
2023-04-22T09:32:27.487Z,99643.19
2023-04-22T09:34:58.522Z,99647.13
2023-04-22T09:37:38.964Z,99643.16
2023-04-22T09:40:18.854Z,99640.38
2023-04-22T09:42:51.576Z,99654.56
2023-04-22T09:45:34.914Z,99648.09
2023-04-22T09:48:07.177Z,99643.88
2023-04-22T09:50:37.044Z,99637.41
2023-04-22T09:53:08.461Z,99639.53
2023-04-22T09:55:41.480Z,99647.81
2023-04-22T09:58:13.325Z,99630.09
2023-04-22T10:00:47.791Z,99622.75
2023-04-22T10:03:18.385Z,99632.59
2023-04-22T10:05:48.627Z,99637.03
2023-04-22T10:08:19.198Z,99637.38
2023-04-22T10:10:49.353Z,99635.38
2023-04-22T10:13:19.277Z,99628.78
2023-04-22T10:15:53.428Z,99629.72
2023-04-22T10:18:25.936Z,99622.28
2023-04-22T10:20:56.684Z,99618.72
2023-04-22T10:23:27.928Z,99625.19
2023-04-22T10:25:59.080Z,99615.88
2023-04-22T10:28:31.486Z,99621.00
2023-04-22T10:31:09.226Z,99607.53
2023-04-22T10:33:39.845Z,99617.06
2023-04-22T10:36:11.347Z,99616.50
2023-04-22T10:38:42.460Z,99598.66
2023-04-22T10:41:17.405Z,99617.66
2023-04-22T10:43:48.599Z,99626.25
2023-04-22T10:46:54.682Z,99622.94
2023-04-22T10:49:28.471Z,99617.59
2023-04-22T10:51:59.152Z,99630.03
2023-04-22T10:54:59.897Z,99616.13
2023-04-22T10:57:40.743Z,99616.81
2023-04-22T11:00:51.763Z,99615.69
2023-04-22T11:03:29.260Z,99642.19
2023-04-22T11:06:22.418Z,99619.25
2023-04-22T11:08:53.314Z,99625.75
2023-04-22T11:11:23.161Z,99612.63
2023-04-22T11:13:53.492Z,99622.94
2023-04-22T11:16:25.016Z,99622.31
2023-04-22T11:18:55.359Z,99625.69
2023-04-22T11:21:27.859Z,99631.44
2023-04-22T11:24:02.904Z,99637.84
2023-04-22T11:26:37.773Z,99633.91
2023-04-22T11:29:07.521Z,99642.44
2023-04-22T11:31:38.497Z,99644.03
2023-04-22T11:34:08.342Z,99640.22
2023-04-22T11:36:40.766Z,99643.75
2023-04-22T11:39:15.172Z,99645.38
2023-04-22T11:41:45.492Z,99637.22
2023-04-22T11:44:17.476Z,99631.13
2023-04-22T11:46:47.453Z,99644.44
2023-04-22T11:49:18.380Z,99643.94
2023-04-22T11:52:00.669Z,99629.16
2023-04-22T11:54:34.734Z,99627.91
2023-04-22T11:57:06.297Z,99617.47
2023-04-22T11:59:36.288Z,99618.59
2023-04-22T12:02:08.431Z,99620.19
2023-04-22T12:04:42.566Z,99606.16
2023-04-22T12:07:15.082Z,99622.00
2023-04-22T12:09:44.964Z,99623.81
2023-04-22T12:12:14.646Z,99616.81
2023-04-22T12:14:48.453Z,99623.25
2023-04-22T12:17:20.191Z,99631.22
2023-04-22T12:19:50.473Z,99620.00
2023-04-22T12:22:29.673Z,99609.84
2023-04-22T12:25:01.170Z,99617.75
2023-04-22T12:27:31.742Z,99622.25
2023-04-22T12:30:01.748Z,99624.25
2023-04-22T12:32:31.443Z,99623.84
2023-04-22T12:35:01.111Z,99614.75
2023-04-22T12:37:33.509Z,99625.53
2023-04-22T12:40:04.701Z,99628.22
2023-04-22T12:42:34.396Z,99633.84
2023-04-22T12:45:04.508Z,99617.50
2023-04-22T12:47:34.249Z,99630.38
2023-04-22T12:50:06.576Z,99610.34
2023-04-22T12:52:40.005Z,99606.84
2023-04-22T12:55:11.143Z,99628.31
2023-04-22T12:57:41.133Z,99625.38
2023-04-22T13:00:15.024Z,99620.91
2023-04-22T13:02:45.447Z,99623.22
2023-04-22T13:05:15.555Z,99612.72
2023-04-22T13:07:59.703Z,99620.00
2023-04-22T13:10:33.689Z,99618.22
2023-04-22T13:13:15.912Z,99623.91
2023-04-22T13:15:47.621Z,99624.75
2023-04-22T13:18:18.054Z,99615.19
2023-04-22T13:20:47.975Z,99617.69
2023-04-22T13:23:21.999Z,99621.34
2023-04-22T13:25:52.652Z,99604.50
2023-04-22T13:28:22.491Z,99621.84
2023-04-22T13:30:52.281Z,99620.91
2023-04-22T13:33:22.112Z,99619.31
2023-04-22T13:35:51.759Z,99624.31
2023-04-22T13:38:24.071Z,99617.72
2023-04-22T13:40:53.809Z,99635.22
2023-04-22T13:43:24.125Z,99623.50
2023-04-22T13:45:53.881Z,99628.06
2023-04-22T13:48:23.565Z,99625.00
2023-04-22T13:50:53.267Z,99633.88
2023-04-22T13:53:25.631Z,99628.53
2023-04-22T13:55:55.491Z,99620.66
2023-04-22T13:58:25.424Z,99631.41
2023-04-22T14:00:55.539Z,99632.03
2023-04-22T14:03:25.566Z,99628.63
2023-04-22T14:05:55.966Z,99640.75
2023-04-22T14:08:28.333Z,99648.00
2023-04-22T14:10:59.494Z,99648.72
2023-04-22T14:13:29.855Z,99667.63
2023-04-22T14:15:59.949Z,99661.44
2023-04-22T14:18:29.745Z,99665.75
2023-04-22T14:21:00.211Z,99661.16
2023-04-22T14:23:32.606Z,99655.97
2023-04-22T14:26:02.869Z,99657.81
2023-04-22T14:28:32.605Z,99666.09
2023-04-22T14:31:02.520Z,99670.00
2023-04-22T14:33:32.478Z,99662.28
2023-04-22T14:36:02.378Z,99664.38
2023-04-22T14:38:34.660Z,99670.16
2023-04-22T14:41:06.082Z,99672.53
2023-04-22T14:43:36.388Z,99674.22
2023-04-22T14:46:06.574Z,99671.66
2023-04-22T14:48:39.423Z,99673.63
2023-04-22T14:51:09.189Z,99674.47
2023-04-22T14:53:41.816Z,99669.50
2023-04-22T14:56:12.131Z,99671.03
2023-04-22T14:58:41.937Z,99676.19
2023-04-22T15:01:11.655Z,99687.84
2023-04-22T15:03:41.621Z,99679.22
2023-04-22T15:06:11.711Z,99677.94
2023-04-22T15:08:44.041Z,99673.72
2023-04-22T15:11:13.869Z,99670.91
2023-04-22T15:13:43.598Z,99673.97
2023-04-22T15:16:13.626Z,99670.88
2023-04-22T15:18:46.427Z,99663.72
2023-04-22T15:21:16.196Z,99669.91
2023-04-22T15:23:48.612Z,99669.63
2023-04-22T15:26:18.385Z,99666.41
2023-04-22T15:28:50.998Z,99667.38
2023-04-22T15:31:21.469Z,99675.94
2023-04-22T15:33:51.271Z,99669.47
2023-04-22T15:36:21.789Z,99668.50
2023-04-22T15:38:57.099Z,99663.47
2023-04-22T15:41:27.174Z,99661.94
2023-04-22T15:43:56.875Z,99663.31
2023-04-22T15:46:26.770Z,99672.28
2023-04-22T15:48:56.737Z,99671.13
2023-04-22T15:51:26.588Z,99665.28
2023-04-22T15:54:00.060Z,99665.72
2023-04-22T15:56:29.739Z,99671.16
2023-04-22T15:58:59.444Z,99669.78
2023-04-22T16:01:29.311Z,99669.91
2023-04-22T16:03:59.171Z,99669.97
2023-04-22T16:06:29.049Z,99663.81
2023-04-22T16:09:01.386Z,99663.50
2023-04-22T16:11:31.229Z,99664.75
2023-04-22T16:14:00.988Z,99662.78
2023-04-22T16:16:30.766Z,99672.41
2023-04-22T16:19:01.163Z,99660.59
2023-04-22T16:21:32.297Z,99664.94
2023-04-22T16:24:04.771Z,99669.38
2023-04-22T16:26:34.563Z,99667.31
2023-04-22T16:29:04.433Z,99670.69
2023-04-22T16:31:35.077Z,99664.66
2023-04-22T16:34:04.813Z,99672.88
2023-04-22T16:36:34.606Z,99664.63
2023-04-22T16:39:07.230Z,99677.13
2023-04-22T16:41:37.370Z,99678.59
2023-04-22T16:44:07.158Z,99687.44
2023-04-22T16:46:36.943Z,99681.81
2023-04-22T16:49:08.434Z,99679.84
2023-04-22T16:51:40.114Z,99684.81
2023-04-22T16:54:12.454Z,99691.97
2023-04-22T16:56:42.927Z,99701.22
2023-04-22T16:59:14.479Z,99701.09
2023-04-22T17:01:44.643Z,99697.00
2023-04-22T17:04:14.402Z,99708.88
2023-04-22T17:06:44.291Z,99710.94
2023-04-22T17:09:16.555Z,99706.81
2023-04-22T17:11:46.397Z,99720.19
2023-04-22T17:14:16.572Z,99723.91
2023-04-22T17:16:46.270Z,99724.78
2023-04-22T17:19:15.992Z,99728.88
2023-04-22T17:21:45.760Z,99740.22
2023-04-22T17:24:18.316Z,99741.41
2023-04-22T17:26:48.897Z,99733.19
2023-04-22T17:29:21.625Z,99741.03
2023-04-22T17:31:51.693Z,99734.63
2023-04-22T17:34:21.524Z,99744.53
2023-04-22T17:36:51.343Z,99746.22
2023-04-22T17:39:23.555Z,99751.78
2023-04-22T17:41:53.321Z,99751.53
2023-04-22T17:44:23.071Z,99761.44
2023-04-22T17:46:52.828Z,99751.25
2023-04-22T17:49:22.534Z,99757.53
2023-04-22T17:51:52.259Z,99759.22
2023-04-22T17:54:24.594Z,99751.94
2023-04-22T17:56:54.319Z,99761.22
2023-04-22T17:59:23.997Z,99760.63
2023-04-22T18:01:53.778Z,99767.09
2023-04-22T18:04:23.589Z,99773.63
2023-04-22T18:06:53.358Z,99767.78
2023-04-22T18:09:26.429Z,99769.47
2023-04-22T18:11:58.304Z,99775.88
2023-04-22T18:14:28.426Z,99776.72
2023-04-22T18:16:58.410Z,99776.31
2023-04-22T18:19:28.130Z,99782.69
2023-04-22T18:22:00.432Z,99784.94
2023-04-22T18:24:33.057Z,99783.59
2023-04-22T18:27:02.894Z,99785.06
2023-04-22T18:29:32.580Z,99782.75
2023-04-22T18:32:02.862Z,99790.59
2023-04-22T18:34:32.590Z,99788.16
2023-04-22T18:37:02.360Z,99792.50
2023-04-22T18:39:34.717Z,99793.59
2023-04-22T18:42:04.435Z,99798.78
2023-04-22T18:44:34.156Z,99806.00
2023-04-22T18:47:04.699Z,99799.50
2023-04-22T18:49:35.200Z,99798.53
2023-04-22T18:52:04.923Z,99810.44
2023-04-22T18:54:37.172Z,99798.06
2023-04-22T18:57:07.166Z,99805.69
2023-04-22T18:59:37.288Z,99805.16
2023-04-22T19:02:08.306Z,99802.72
2023-04-22T19:04:38.289Z,99808.03
2023-04-22T19:07:08.279Z,99799.22
2023-04-22T19:09:40.618Z,99803.91
2023-04-22T19:12:14.787Z,99815.06
2023-04-22T19:14:44.731Z,99809.53
2023-04-22T19:17:14.363Z,99810.59
2023-04-22T19:19:45.435Z,99816.25
2023-04-22T19:22:16.280Z,99820.47
2023-04-22T19:24:48.609Z,99817.09
2023-04-22T19:27:18.376Z,99811.97
2023-04-22T19:29:51.865Z,99814.97
2023-04-22T19:32:21.725Z,99807.75
2023-04-22T19:34:51.929Z,99806.91
2023-04-22T19:37:22.122Z,99812.09
2023-04-22T19:39:54.455Z,99813.28
2023-04-22T19:42:24.255Z,99811.66
2023-04-22T19:44:54.859Z,99818.69
2023-04-22T19:47:24.932Z,99820.81
2023-04-22T19:49:55.243Z,99845.41
2023-04-22T19:52:25.194Z,99864.63
2023-04-22T19:55:00.358Z,99867.78
2023-04-22T19:57:30.268Z,99867.78
2023-04-22T20:00:00.135Z,99858.44
2023-04-22T20:02:30.433Z,99864.34
2023-04-22T20:05:01.093Z,99860.63
2023-04-22T20:07:31.444Z,99856.38
2023-04-22T20:10:04.262Z,99858.91
2023-04-22T20:12:34.725Z,99861.53
2023-04-22T20:15:05.651Z,99857.16
2023-04-22T20:17:38.795Z,99854.63
2023-04-22T20:20:13.222Z,99861.91
2023-04-22T20:22:43.348Z,99880.19
2023-04-22T20:25:18.065Z,99876.06
2023-04-22T20:27:48.100Z,99882.41
2023-04-22T20:30:19.070Z,99880.69
2023-04-22T20:32:49.091Z,99893.31
2023-04-22T20:35:19.327Z,99881.88
2023-04-22T20:37:51.050Z,99891.16
2023-04-22T20:40:24.815Z,99884.16
2023-04-22T20:42:54.661Z,99891.31
2023-04-22T20:45:24.581Z,99894.91
2023-04-22T20:47:54.514Z,99896.53
2023-04-22T20:50:24.739Z,99896.44
2023-04-22T20:52:54.951Z,99899.84
2023-04-22T20:55:27.265Z,99906.06
2023-04-22T20:57:57.004Z,99908.81
2023-04-22T21:00:27.143Z,99909.94
2023-04-22T21:02:57.317Z,99914.03
2023-04-22T21:05:28.130Z,99915.28
2023-04-22T21:07:58.653Z,99906.78
2023-04-22T21:10:32.494Z,99910.38
2023-04-22T21:13:02.413Z,99911.50
2023-04-22T21:15:32.894Z,99910.28
2023-04-22T21:18:03.606Z,99909.81
2023-04-22T21:20:33.645Z,99907.38
2023-04-22T21:23:04.421Z,99910.50
2023-04-22T21:25:37.772Z,99902.66
2023-04-22T21:28:07.997Z,99899.25
2023-04-22T21:30:38.610Z,99904.72
2023-04-22T21:33:08.647Z,99908.31
2023-04-22T21:35:39.322Z,99903.97
2023-04-22T21:38:09.488Z,99911.81
2023-04-22T21:40:41.819Z,99910.88
2023-04-22T21:43:11.529Z,99918.06
2023-04-22T21:45:41.291Z,99913.13
2023-04-22T21:48:11.644Z,99916.97
2023-04-22T21:50:41.897Z,99914.53
2023-04-22T21:53:12.068Z,99926.22
2023-04-22T21:55:44.375Z,99921.44
2023-04-22T21:58:15.032Z,99921.09
2023-04-22T22:00:45.180Z,99923.94
2023-04-22T22:03:15.486Z,99929.41
2023-04-22T22:05:45.496Z,99933.16
2023-04-22T22:08:15.255Z,99932.09
2023-04-22T22:10:48.493Z,99932.34
2023-04-22T22:13:18.265Z,99932.59
2023-04-22T22:15:47.995Z,99932.13
2023-04-22T22:18:17.692Z,99937.41
2023-04-22T22:20:47.837Z,99941.16
2023-04-22T22:23:18.891Z,99936.72
2023-04-22T22:25:51.367Z,99945.59
2023-04-22T22:28:21.278Z,99942.69
2023-04-22T22:30:50.962Z,99946.09
2023-04-22T22:33:20.661Z,99945.25
2023-04-22T22:35:50.443Z,99949.69
2023-04-22T22:38:20.102Z,99945.25
2023-04-22T22:40:52.385Z,99950.25
2023-04-22T22:43:22.089Z,99951.97
2023-04-22T22:45:51.966Z,99954.78
2023-04-22T22:48:21.805Z,99955.81
2023-04-22T22:50:51.764Z,99957.69
2023-04-22T22:53:21.545Z,99951.91
2023-04-22T22:55:53.881Z,99950.47
2023-04-22T22:58:23.592Z,99941.69
2023-04-22T23:00:53.268Z,99948.56
2023-04-22T23:03:23.382Z,99948.66
2023-04-22T23:05:53.221Z,99957.53
2023-04-22T23:08:22.951Z,99963.06
2023-04-22T23:10:55.492Z,99963.06
2023-04-22T23:13:25.225Z,99957.88
2023-04-22T23:15:54.916Z,99956.19
2023-04-22T23:18:25.110Z,99954.38
2023-04-22T23:20:54.996Z,99955.41
2023-04-22T23:23:25.583Z,99954.56
2023-04-22T23:26:00.875Z,99952.94
2023-04-22T23:28:31.358Z,99947.22
2023-04-22T23:31:01.340Z,99947.50
2023-04-22T23:33:32.566Z,99942.66
2023-04-22T23:36:03.905Z,99940.34
2023-04-22T23:38:33.733Z,99942.06
2023-04-22T23:41:05.997Z,99943.84
2023-04-22T23:43:35.779Z,99945.63
2023-04-22T23:46:05.476Z,99931.50
2023-04-22T23:48:35.248Z,99935.78
2023-04-22T23:51:04.936Z,99937.28
2023-04-22T23:53:34.590Z,99934.66
2023-04-22T23:56:07.745Z,99939.84
2023-04-22T23:58:38.118Z,99936.44
